Orange City, IA

7:03 PM CST on November 23, 2014 (GMT -0600)
Orange City Municipal | Change Station
CLOSE
Current Station
Airport
Location: Orange City,
Elevation: 1414 ft
Nearby Weather Stations

Elev 1414 ft 42.99 °N, 96.06 °W | Updated 8 minutes ago

Mostly Cloudy
Mostly Cloudy
37 °F
Feels Like 27 °F
N
21
Wind Variable Wind from NNW
Gusts 31 mph

Today
High -- | Low -- °F
--% Chance of Precip.
Yesterday
High -- | Low -- °F
Precip. -- in
7:26 AM 4:54 PM
Waxing Crescent, 3% visible
Pressure 29.51 in
Visibility 10.0 miles
Clouds Mostly Cloudy 4300 ft
Windchill 27 °F
Dew Point 27 °F
Humidity 65%
Rainfall 0.00 in
Snow Depth Not available.
UV 0 out of 12
Pollen .10 out of 12
Air Quality Not available.
Flu Activity Not available.
METAR KORC 240055Z AUTO 33018G27KT 10SM BKN043 03/M03 A2951 RMK AO2

More Conditions Fewer Conditions

Pressure 29.51 in
Visibility 10.0 miles
Clouds Mostly Cloudy 4300 ft
Windchill 27 °F
Dew Point 27 °F
Humidity 65%
Rainfall 0.00 in
Snow Depth Not available.
UV 0 out of 12
Pollen .10 out of 12
Air Quality Not available.
Flu Activity Not available.
METAR KORC 240055Z AUTO 33018G27KT 10SM BKN043 03/M03 A2951 RMK AO2

More Conditions Fewer Conditions

10-Day Weather Forecast

Almanac

Astronomy

Nov. 23, 2014 Rise Set
Actual Time
Civil Twilight
Nautical Twilight
Astronomical Twilight
Moon
Length of Visible Light
Length of Day
Tomorrow will be .
, % of the Moon is Illuminated

Today's Extremes

State Highs State Lows

Community

WunderPhotos

Upload Photos

1,773,232 photos uploaded!

WunderBlogs® & News

Nearby

Air Quality

  Air Quality AQ Index Pollutant
Not available.

Snow Depth

Station Depth Elevation

Earthquake Activity

City Distance Mag. Time & Date
Minimum magnitude displayed is 2.5.

Coastal Water Temperatures

Place Temperature

Nearby Weather Stations